Antioch, Nebraska
Current Conditions -  °F | °C
As of 1:53 AM on Sunday 26 Oct 2014 (Local Time) from KAIA Reporting Station
Clear Clear  
Wind Chill: 42°   Ceiling: Unl
Heat Index: 46°   Visibility: 10mi
Dew Point: 43°   Wind: 8mph
Humidity: 89%   Direction: 160°SSE
Pressure: 29.85"   Gusts: NA
Location:  42.1734°N, 102.461°W
Report Text: KAIA 260753Z AUTO 16007KT 10SM CLR 08/06 A2985 RMK AO2 SLP083 T00780061
Loading
Personal Weather Stations






























Interactive Weather Map
Tropical Storm Tracking
New forecast layout! Learn more

10-Day Weather Forecast

Advertisements
Track Severe Weather on mobile